sensor_id;sensor_type;location;lat;lon;timestamp;P1;durP1;ratioP1;P2;durP2;ratioP2
18838;SDS011;9548;56.920;14.804;2022-12-17T00:00:20;15.83;;;5.20;;
18838;SDS011;9548;56.920;14.804;2022-12-17T00:03:07;18.10;;;4.77;;
18838;SDS011;9548;56.920;14.804;2022-12-17T00:05:53;25.73;;;5.30;;
18838;SDS011;9548;56.920;14.804;2022-12-17T00:08:37;16.03;;;4.60;;
18838;SDS011;9548;56.920;14.804;2022-12-17T00:11:21;15.70;;;4.60;;
18838;SDS011;9548;56.920;14.804;2022-12-17T00:14:06;13.50;;;3.87;;
18838;SDS011;9548;56.920;14.804;2022-12-17T00:16:59;15.50;;;4.83;;
18838;SDS011;9548;56.920;14.804;2022-12-17T00:19:45;14.13;;;4.67;;
18838;SDS011;9548;56.920;14.804;2022-12-17T00:22:29;20.43;;;4.50;;
18838;SDS011;9548;56.920;14.804;2022-12-17T00:25:13;18.60;;;4.77;;
18838;SDS011;9548;56.920;14.804;2022-12-17T00:27:57;11.40;;;4.43;;
18838;SDS011;9548;56.920;14.804;2022-12-17T00:30:42;16.00;;;5.77;;
18838;SDS011;9548;56.920;14.804;2022-12-17T00:33:26;16.47;;;4.40;;
18838;SDS011;9548;56.920;14.804;2022-12-17T00:36:11;14.07;;;4.10;;
18838;SDS011;9548;56.920;14.804;2022-12-17T00:38:56;9.47;;;4.10;;
18838;SDS011;9548;56.920;14.804;2022-12-17T00:41:40;9.50;;;2.53;;
18838;SDS011;9548;56.920;14.804;2022-12-17T00:44:24;9.63;;;3.93;;
18838;SDS011;9548;56.920;14.804;2022-12-17T00:47:09;7.90;;;3.97;;
18838;SDS011;9548;56.920;14.804;2022-12-17T00:49:58;15.43;;;3.60;;
18838;SDS011;9548;56.920;14.804;2022-12-17T00:52:44;11.07;;;3.83;;
18838;SDS011;9548;56.920;14.804;2022-12-17T00:55:29;9.27;;;2.80;;
18838;SDS011;9548;56.920;14.804;2022-12-17T00:58:13;10.80;;;3.93;;
18838;SDS011;9548;56.920;14.804;2022-12-17T01:00:57;6.30;;;2.47;;
18838;SDS011;9548;56.920;14.804;2022-12-17T01:03:42;10.20;;;2.87;;
18838;SDS011;9548;56.920;14.804;2022-12-17T01:06:26;12.73;;;4.03;;
18838;SDS011;9548;56.920;14.804;2022-12-17T01:09:12;7.37;;;2.77;;
18838;SDS011;9548;56.920;14.804;2022-12-17T01:11:57;7.03;;;2.43;;
18838;SDS011;9548;56.920;14.804;2022-12-17T01:14:41;11.17;;;3.07;;
18838;SDS011;9548;56.920;14.804;2022-12-17T01:17:25;6.30;;;2.60;;
18838;SDS011;9548;56.920;14.804;2022-12-17T01:20:10;6.10;;;2.93;;
18838;SDS011;9548;56.920;14.804;2022-12-17T01:22:54;8.17;;;2.60;;
18838;SDS011;9548;56.920;14.804;2022-12-17T01:25:55;8.20;;;2.37;;
18838;SDS011;9548;56.920;14.804;2022-12-17T01:28:40;6.97;;;3.27;;
18838;SDS011;9548;56.920;14.804;2022-12-17T01:31:25;9.87;;;3.00;;
18838;SDS011;9548;56.920;14.804;2022-12-17T01:34:10;4.57;;;1.97;;
18838;SDS011;9548;56.920;14.804;2022-12-17T01:36:54;11.00;;;3.17;;
18838;SDS011;9548;56.920;14.804;2022-12-17T01:39:39;8.27;;;2.83;;
18838;SDS011;9548;56.920;14.804;2022-12-17T01:42:24;10.17;;;3.80;;
18838;SDS011;9548;56.920;14.804;2022-12-17T01:45:09;7.20;;;2.60;;
18838;SDS011;9548;56.920;14.804;2022-12-17T01:47:56;6.83;;;2.57;;
18838;SDS011;9548;56.920;14.804;2022-12-17T01:50:45;9.10;;;2.97;;
18838;SDS011;9548;56.920;14.804;2022-12-17T01:53:33;6.53;;;2.20;;
18838;SDS011;9548;56.920;14.804;2022-12-17T01:56:19;9.57;;;2.87;;
18838;SDS011;9548;56.920;14.804;2022-12-17T01:59:07;8.77;;;2.97;;
18838;SDS011;9548;56.920;14.804;2022-12-17T02:01:52;8.07;;;2.50;;
18838;SDS011;9548;56.920;14.804;2022-12-17T02:04:37;9.83;;;2.53;;
18838;SDS011;9548;56.920;14.804;2022-12-17T02:07:27;9.93;;;2.40;;
18838;SDS011;9548;56.920;14.804;2022-12-17T02:10:22;12.57;;;2.47;;
18838;SDS011;9548;56.920;14.804;2022-12-17T02:13:10;6.30;;;2.23;;
18838;SDS011;9548;56.920;14.804;2022-12-17T02:16:00;10.97;;;2.90;;
18838;SDS011;9548;56.920;14.804;2022-12-17T02:18:52;8.17;;;2.93;;
18838;SDS011;9548;56.920;14.804;2022-12-17T02:21:41;10.67;;;3.30;;
18838;SDS011;9548;56.920;14.804;2022-12-17T02:24:29;5.13;;;1.87;;
18838;SDS011;9548;56.920;14.804;2022-12-17T02:27:23;7.37;;;2.43;;
18838;SDS011;9548;56.920;14.804;2022-12-17T02:30:08;7.57;;;2.37;;
18838;SDS011;9548;56.920;14.804;2022-12-17T02:32:54;5.60;;;2.20;;
18838;SDS011;9548;56.920;14.804;2022-12-17T02:35:39;5.03;;;1.87;;
18838;SDS011;9548;56.920;14.804;2022-12-17T02:38:27;8.37;;;1.83;;
18838;SDS011;9548;56.920;14.804;2022-12-17T02:41:14;3.57;;;2.37;;
18838;SDS011;9548;56.920;14.804;2022-12-17T02:44:02;7.40;;;2.00;;
18838;SDS011;9548;56.920;14.804;2022-12-17T02:46:48;7.70;;;3.47;;
18838;SDS011;9548;56.920;14.804;2022-12-17T02:49:36;12.13;;;3.33;;
18838;SDS011;9548;56.920;14.804;2022-12-17T02:52:35;7.67;;;3.07;;
18838;SDS011;9548;56.920;14.804;2022-12-17T02:55:23;7.33;;;3.10;;
18838;SDS011;9548;56.920;14.804;2022-12-17T02:58:07;8.10;;;3.23;;
18838;SDS011;9548;56.920;14.804;2022-12-17T03:00:53;10.83;;;3.13;;
18838;SDS011;9548;56.920;14.804;2022-12-17T03:03:37;9.53;;;3.40;;
18838;SDS011;9548;56.920;14.804;2022-12-17T03:06:27;8.33;;;3.23;;
18838;SDS011;9548;56.920;14.804;2022-12-17T03:09:12;7.93;;;3.07;;
18838;SDS011;9548;56.920;14.804;2022-12-17T03:11:56;19.20;;;3.07;;
18838;SDS011;9548;56.920;14.804;2022-12-17T03:14:40;7.97;;;2.90;;
18838;SDS011;9548;56.920;14.804;2022-12-17T03:17:27;12.47;;;3.27;;
18838;SDS011;9548;56.920;14.804;2022-12-17T03:20:11;12.87;;;3.97;;
18838;SDS011;9548;56.920;14.804;2022-12-17T03:23:00;11.83;;;4.13;;
18838;SDS011;9548;56.920;14.804;2022-12-17T03:25:45;11.00;;;3.97;;
18838;SDS011;9548;56.920;14.804;2022-12-17T03:28:29;18.77;;;5.27;;
18838;SDS011;9548;56.920;14.804;2022-12-17T03:31:14;12.33;;;4.30;;
18838;SDS011;9548;56.920;14.804;2022-12-17T03:34:00;9.37;;;3.37;;
18838;SDS011;9548;56.920;14.804;2022-12-17T03:36:40;7.60;;;2.70;;
18838;SDS011;9548;56.920;14.804;2022-12-17T03:39:25;14.03;;;3.67;;
18838;SDS011;9548;56.920;14.804;2022-12-17T03:42:09;6.73;;;3.27;;
18838;SDS011;9548;56.920;14.804;2022-12-17T03:44:53;16.63;;;3.47;;
18838;SDS011;9548;56.920;14.804;2022-12-17T03:47:38;9.83;;;3.33;;
18838;SDS011;9548;56.920;14.804;2022-12-17T03:50:24;11.27;;;3.27;;
18838;SDS011;9548;56.920;14.804;2022-12-17T03:53:08;14.70;;;2.53;;
18838;SDS011;9548;56.920;14.804;2022-12-17T03:55:52;12.57;;;3.03;;
18838;SDS011;9548;56.920;14.804;2022-12-17T03:58:37;5.97;;;2.70;;
18838;SDS011;9548;56.920;14.804;2022-12-17T04:01:21;7.73;;;2.70;;
18838;SDS011;9548;56.920;14.804;2022-12-17T04:04:05;6.47;;;3.03;;
18838;SDS011;9548;56.920;14.804;2022-12-17T04:06:51;8.53;;;2.90;;
18838;SDS011;9548;56.920;14.804;2022-12-17T04:09:35;6.17;;;2.77;;
18838;SDS011;9548;56.920;14.804;2022-12-17T04:12:19;2.80;;;1.53;;
18838;SDS011;9548;56.920;14.804;2022-12-17T04:15:04;6.73;;;2.53;;
18838;SDS011;9548;56.920;14.804;2022-12-17T04:18:04;3.63;;;1.83;;
18838;SDS011;9548;56.920;14.804;2022-12-17T04:20:48;9.13;;;2.83;;
18838;SDS011;9548;56.920;14.804;2022-12-17T04:23:34;5.60;;;1.37;;
18838;SDS011;9548;56.920;14.804;2022-12-17T04:26:19;9.00;;;1.93;;
18838;SDS011;9548;56.920;14.804;2022-12-17T04:29:03;4.23;;;1.93;;
18838;SDS011;9548;56.920;14.804;2022-12-17T04:31:52;3.43;;;1.30;;
18838;SDS011;9548;56.920;14.804;2022-12-17T04:34:37;4.27;;;1.90;;
18838;SDS011;9548;56.920;14.804;2022-12-17T04:37:22;7.77;;;2.80;;
18838;SDS011;9548;56.920;14.804;2022-12-17T04:40:09;5.10;;;2.47;;
18838;SDS011;9548;56.920;14.804;2022-12-17T04:42:54;5.43;;;1.77;;
18838;SDS011;9548;56.920;14.804;2022-12-17T04:45:39;7.63;;;2.43;;
18838;SDS011;9548;56.920;14.804;2022-12-17T04:48:23;5.43;;;2.23;;
18838;SDS011;9548;56.920;14.804;2022-12-17T04:51:07;6.33;;;2.47;;
18838;SDS011;9548;56.920;14.804;2022-12-17T04:53:52;5.53;;;1.57;;
18838;SDS011;9548;56.920;14.804;2022-12-17T04:56:46;3.63;;;1.73;;
18838;SDS011;9548;56.920;14.804;2022-12-17T04:59:30;4.23;;;1.57;;
18838;SDS011;9548;56.920;14.804;2022-12-17T05:02:15;6.50;;;2.60;;
18838;SDS011;9548;56.920;14.804;2022-12-17T05:04:59;2.57;;;1.63;;
18838;SDS011;9548;56.920;14.804;2022-12-17T05:07:55;3.57;;;1.27;;
18838;SDS011;9548;56.920;14.804;2022-12-17T05:10:40;3.90;;;1.10;;
18838;SDS011;9548;56.920;14.804;2022-12-17T05:13:26;3.30;;;1.60;;
18838;SDS011;9548;56.920;14.804;2022-12-17T05:16:11;2.47;;;1.00;;
18838;SDS011;9548;56.920;14.804;2022-12-17T05:18:56;3.20;;;1.57;;
18838;SDS011;9548;56.920;14.804;2022-12-17T05:21:40;2.57;;;1.17;;
18838;SDS011;9548;56.920;14.804;2022-12-17T05:24:24;6.10;;;1.87;;
18838;SDS011;9548;56.920;14.804;2022-12-17T05:27:09;2.30;;;1.07;;
18838;SDS011;9548;56.920;14.804;2022-12-17T05:29:54;2.73;;;1.37;;
18838;SDS011;9548;56.920;14.804;2022-12-17T05:32:39;3.77;;;1.30;;
18838;SDS011;9548;56.920;14.804;2022-12-17T05:35:23;2.70;;;1.00;;
18838;SDS011;9548;56.920;14.804;2022-12-17T05:38:04;4.60;;;1.03;;
18838;SDS011;9548;56.920;14.804;2022-12-17T05:40:49;1.67;;;1.23;;
18838;SDS011;9548;56.920;14.804;2022-12-17T05:43:34;4.00;;;1.03;;
18838;SDS011;9548;56.920;14.804;2022-12-17T05:46:20;4.33;;;1.10;;
18838;SDS011;9548;56.920;14.804;2022-12-17T05:49:04;2.93;;;1.20;;
18838;SDS011;9548;56.920;14.804;2022-12-17T05:51:49;2.13;;;1.23;;
18838;SDS011;9548;56.920;14.804;2022-12-17T05:54:33;2.07;;;1.10;;
18838;SDS011;9548;56.920;14.804;2022-12-17T05:57:17;3.83;;;0.90;;
18838;SDS011;9548;56.920;14.804;2022-12-17T06:00:02;1.30;;;0.63;;
18838;SDS011;9548;56.920;14.804;2022-12-17T06:02:57;4.50;;;1.80;;
18838;SDS011;9548;56.920;14.804;2022-12-17T06:05:42;2.10;;;0.80;;
18838;SDS011;9548;56.920;14.804;2022-12-17T06:08:26;5.47;;;1.50;;
18838;SDS011;9548;56.920;14.804;2022-12-17T06:11:11;2.77;;;1.03;;
18838;SDS011;9548;56.920;14.804;2022-12-17T06:13:55;1.43;;;0.87;;
18838;SDS011;9548;56.920;14.804;2022-12-17T06:16:40;3.07;;;1.07;;
18838;SDS011;9548;56.920;14.804;2022-12-17T06:19:25;6.27;;;1.10;;
18838;SDS011;9548;56.920;14.804;2022-12-17T06:22:10;3.20;;;1.30;;
18838;SDS011;9548;56.920;14.804;2022-12-17T06:24:55;3.67;;;1.60;;
18838;SDS011;9548;56.920;14.804;2022-12-17T06:27:39;5.70;;;1.97;;
18838;SDS011;9548;56.920;14.804;2022-12-17T06:30:23;2.10;;;0.90;;
18838;SDS011;9548;56.920;14.804;2022-12-17T06:33:09;2.97;;;1.00;;
18838;SDS011;9548;56.920;14.804;2022-12-17T06:35:56;2.27;;;1.13;;
18838;SDS011;9548;56.920;14.804;2022-12-17T06:38:41;4.63;;;1.70;;
18838;SDS011;9548;56.920;14.804;2022-12-17T06:41:27;4.47;;;1.67;;
18838;SDS011;9548;56.920;14.804;2022-12-17T06:44:11;3.07;;;0.90;;
18838;SDS011;9548;56.920;14.804;2022-12-17T06:46:56;1.70;;;0.80;;
18838;SDS011;9548;56.920;14.804;2022-12-17T06:49:40;2.83;;;1.30;;
18838;SDS011;9548;56.920;14.804;2022-12-17T06:52:26;2.97;;;1.13;;
18838;SDS011;9548;56.920;14.804;2022-12-17T06:55:10;6.73;;;1.50;;
18838;SDS011;9548;56.920;14.804;2022-12-17T06:57:55;3.73;;;1.20;;
18838;SDS011;9548;56.920;14.804;2022-12-17T07:00:39;1.43;;;0.80;;
18838;SDS011;9548;56.920;14.804;2022-12-17T07:03:24;5.10;;;2.40;;
18838;SDS011;9548;56.920;14.804;2022-12-17T07:06:08;1.77;;;0.87;;
18838;SDS011;9548;56.920;14.804;2022-12-17T07:08:54;2.07;;;0.60;;
18838;SDS011;9548;56.920;14.804;2022-12-17T07:11:38;1.03;;;0.73;;
18838;SDS011;9548;56.920;14.804;2022-12-17T07:14:23;1.97;;;1.17;;
18838;SDS011;9548;56.920;14.804;2022-12-17T07:17:07;4.67;;;1.17;;
18838;SDS011;9548;56.920;14.804;2022-12-17T07:19:51;2.20;;;0.60;;
18838;SDS011;9548;56.920;14.804;2022-12-17T07:22:36;3.30;;;1.00;;
18838;SDS011;9548;56.920;14.804;2022-12-17T07:25:22;3.07;;;0.93;;
18838;SDS011;9548;56.920;14.804;2022-12-17T07:28:06;3.47;;;1.27;;
18838;SDS011;9548;56.920;14.804;2022-12-17T07:30:50;2.57;;;0.97;;
18838;SDS011;9548;56.920;14.804;2022-12-17T07:33:35;1.30;;;0.73;;
18838;SDS011;9548;56.920;14.804;2022-12-17T07:36:19;1.40;;;0.87;;
18838;SDS011;9548;56.920;14.804;2022-12-17T07:39:03;9.17;;;1.80;;
18838;SDS011;9548;56.920;14.804;2022-12-17T07:41:49;1.07;;;0.90;;
18838;SDS011;9548;56.920;14.804;2022-12-17T07:44:33;5.87;;;1.87;;
18838;SDS011;9548;56.920;14.804;2022-12-17T07:47:17;2.47;;;1.30;;
18838;SDS011;9548;56.920;14.804;2022-12-17T07:50:02;4.23;;;2.00;;
18838;SDS011;9548;56.920;14.804;2022-12-17T07:52:47;7.57;;;2.27;;
18838;SDS011;9548;56.920;14.804;2022-12-17T07:55:41;3.00;;;1.43;;
18838;SDS011;9548;56.920;14.804;2022-12-17T07:58:27;4.60;;;2.30;;
18838;SDS011;9548;56.920;14.804;2022-12-17T08:01:11;7.43;;;2.70;;
18838;SDS011;9548;56.920;14.804;2022-12-17T08:03:55;3.93;;;2.30;;
18838;SDS011;9548;56.920;14.804;2022-12-17T08:06:40;6.67;;;2.53;;
18838;SDS011;9548;56.920;14.804;2022-12-17T08:09:23;5.17;;;2.37;;
18838;SDS011;9548;56.920;14.804;2022-12-17T08:12:08;6.13;;;2.40;;
18838;SDS011;9548;56.920;14.804;2022-12-17T08:14:54;4.50;;;2.03;;
18838;SDS011;9548;56.920;14.804;2022-12-17T08:17:39;9.07;;;2.80;;
18838;SDS011;9548;56.920;14.804;2022-12-17T08:20:23;12.33;;;3.37;;
18838;SDS011;9548;56.920;14.804;2022-12-17T08:23:07;8.83;;;2.83;;
18838;SDS011;9548;56.920;14.804;2022-12-17T08:25:52;8.27;;;3.03;;
18838;SDS011;9548;56.920;14.804;2022-12-17T08:28:37;7.57;;;3.63;;
18838;SDS011;9548;56.920;14.804;2022-12-17T08:31:23;4.73;;;2.27;;
18838;SDS011;9548;56.920;14.804;2022-12-17T08:34:08;5.77;;;2.50;;
18838;SDS011;9548;56.920;14.804;2022-12-17T08:36:52;7.67;;;3.60;;
18838;SDS011;9548;56.920;14.804;2022-12-17T08:39:37;8.90;;;4.23;;
18838;SDS011;9548;56.920;14.804;2022-12-17T08:42:21;6.47;;;3.10;;
18838;SDS011;9548;56.920;14.804;2022-12-17T08:45:06;7.40;;;2.93;;
18838;SDS011;9548;56.920;14.804;2022-12-17T08:47:52;8.30;;;3.67;;
18838;SDS011;9548;56.920;14.804;2022-12-17T08:50:44;6.00;;;3.60;;
18838;SDS011;9548;56.920;14.804;2022-12-17T08:53:28;8.63;;;3.33;;
18838;SDS011;9548;56.920;14.804;2022-12-17T08:56:12;14.57;;;5.10;;
18838;SDS011;9548;56.920;14.804;2022-12-17T08:58:57;14.97;;;4.13;;
18838;SDS011;9548;56.920;14.804;2022-12-17T09:01:41;8.73;;;3.17;;
18838;SDS011;9548;56.920;14.804;2022-12-17T09:04:27;8.43;;;3.27;;
18838;SDS011;9548;56.920;14.804;2022-12-17T09:07:11;12.03;;;4.13;;
18838;SDS011;9548;56.920;14.804;2022-12-17T09:09:55;10.87;;;3.43;;
18838;SDS011;9548;56.920;14.804;2022-12-17T09:12:40;12.93;;;3.70;;
18838;SDS011;9548;56.920;14.804;2022-12-17T09:15:24;13.63;;;5.83;;
18838;SDS011;9548;56.920;14.804;2022-12-17T09:18:09;18.03;;;6.97;;
18838;SDS011;9548;56.920;14.804;2022-12-17T09:20:55;18.37;;;6.90;;
18838;SDS011;9548;56.920;14.804;2022-12-17T09:23:39;15.07;;;6.67;;
18838;SDS011;9548;56.920;14.804;2022-12-17T09:26:24;16.53;;;6.60;;
18838;SDS011;9548;56.920;14.804;2022-12-17T09:29:08;12.80;;;6.17;;
18838;SDS011;9548;56.920;14.804;2022-12-17T09:31:52;18.70;;;6.93;;
18838;SDS011;9548;56.920;14.804;2022-12-17T09:34:45;17.43;;;6.47;;
18838;SDS011;9548;56.920;14.804;2022-12-17T09:37:31;14.90;;;6.27;;
18838;SDS011;9548;56.920;14.804;2022-12-17T09:40:17;15.13;;;6.00;;
18838;SDS011;9548;56.920;14.804;2022-12-17T09:43:04;15.63;;;6.30;;
18838;SDS011;9548;56.920;14.804;2022-12-17T09:45:58;12.30;;;6.00;;
18838;SDS011;9548;56.920;14.804;2022-12-17T09:48:50;18.40;;;7.93;;
18838;SDS011;9548;56.920;14.804;2022-12-17T09:51:43;24.40;;;9.03;;
18838;SDS011;9548;56.920;14.804;2022-12-17T09:54:30;27.17;;;11.90;;
18838;SDS011;9548;56.920;14.804;2022-12-17T09:57:17;26.43;;;10.43;;
18838;SDS011;9548;56.920;14.804;2022-12-17T10:00:06;24.93;;;11.23;;
18838;SDS011;9548;56.920;14.804;2022-12-17T10:02:56;27.47;;;10.53;;
18838;SDS011;9548;56.920;14.804;2022-12-17T10:05:41;26.67;;;10.73;;
18838;SDS011;9548;56.920;14.804;2022-12-17T10:08:27;20.30;;;8.40;;
18838;SDS011;9548;56.920;14.804;2022-12-17T10:11:17;17.73;;;7.50;;
18838;SDS011;9548;56.920;14.804;2022-12-17T10:14:08;17.47;;;7.77;;
18838;SDS011;9548;56.920;14.804;2022-12-17T10:16:58;17.53;;;7.43;;
18838;SDS011;9548;56.920;14.804;2022-12-17T10:19:42;12.60;;;5.90;;
18838;SDS011;9548;56.920;14.804;2022-12-17T10:22:29;8.57;;;4.20;;
18838;SDS011;9548;56.920;14.804;2022-12-17T10:25:14;8.97;;;3.90;;
18838;SDS011;9548;56.920;14.804;2022-12-17T10:28:02;6.67;;;3.13;;
18838;SDS011;9548;56.920;14.804;2022-12-17T10:31:06;7.90;;;3.33;;
18838;SDS011;9548;56.920;14.804;2022-12-17T10:33:54;7.33;;;2.40;;
18838;SDS011;9548;56.920;14.804;2022-12-17T10:36:43;7.13;;;2.53;;
18838;SDS011;9548;56.920;14.804;2022-12-17T10:39:29;6.50;;;3.03;;
18838;SDS011;9548;56.920;14.804;2022-12-17T10:42:18;5.40;;;2.50;;
18838;SDS011;9548;56.920;14.804;2022-12-17T10:45:19;5.80;;;2.67;;
18838;SDS011;9548;56.920;14.804;2022-12-17T10:48:17;7.60;;;3.30;;
18838;SDS011;9548;56.920;14.804;2022-12-17T10:51:15;8.65;;;4.00;;
18838;SDS011;9548;56.920;14.804;2022-12-17T10:54:04;9.23;;;3.97;;
18838;SDS011;9548;56.920;14.804;2022-12-17T10:57:00;5.65;;;3.30;;
18838;SDS011;9548;56.920;14.804;2022-12-17T10:59:44;7.75;;;3.60;;
18838;SDS011;9548;56.920;14.804;2022-12-17T11:02:31;6.80;;;3.47;;
18838;SDS011;9548;56.920;14.804;2022-12-17T11:05:20;6.70;;;3.58;;
18838;SDS011;9548;56.920;14.804;2022-12-17T11:08:08;6.88;;;3.42;;
18838;SDS011;9548;56.920;14.804;2022-12-17T11:10:54;6.63;;;3.15;;
18838;SDS011;9548;56.920;14.804;2022-12-17T11:13:40;6.30;;;3.22;;
18838;SDS011;9548;56.920;14.804;2022-12-17T11:16:28;6.45;;;2.92;;
18838;SDS011;9548;56.920;14.804;2022-12-17T11:19:24;6.43;;;2.58;;
18838;SDS011;9548;56.920;14.804;2022-12-17T11:22:27;7.22;;;3.20;;
18838;SDS011;9548;56.920;14.804;2022-12-17T11:25:25;6.88;;;3.30;;
18838;SDS011;9548;56.920;14.804;2022-12-17T11:28:19;4.88;;;2.67;;
18838;SDS011;9548;56.920;14.804;2022-12-17T11:31:26;3.42;;;2.30;;
18838;SDS011;9548;56.920;14.804;2022-12-17T11:34:19;7.13;;;2.50;;
18838;SDS011;9548;56.920;14.804;2022-12-17T11:37:14;5.40;;;2.47;;
18838;SDS011;9548;56.920;14.804;2022-12-17T11:40:02;4.25;;;2.30;;
18838;SDS011;9548;56.920;14.804;2022-12-17T11:43:01;4.68;;;2.60;;
18838;SDS011;9548;56.920;14.804;2022-12-17T11:45:53;5.32;;;2.70;;
18838;SDS011;9548;56.920;14.804;2022-12-17T11:48:43;7.15;;;2.83;;
18838;SDS011;9548;56.920;14.804;2022-12-17T11:51:37;5.97;;;2.77;;
18838;SDS011;9548;56.920;14.804;2022-12-17T11:54:27;7.47;;;2.38;;
18838;SDS011;9548;56.920;14.804;2022-12-17T11:57:21;3.47;;;2.20;;
18838;SDS011;9548;56.920;14.804;2022-12-17T12:00:12;5.07;;;2.33;;
18838;SDS011;9548;56.920;14.804;2022-12-17T12:03:03;3.87;;;2.47;;
18838;SDS011;9548;56.920;14.804;2022-12-17T12:05:59;6.00;;;2.60;;
18838;SDS011;9548;56.920;14.804;2022-12-17T12:08:49;6.13;;;3.03;;
18838;SDS011;9548;56.920;14.804;2022-12-17T12:11:38;7.20;;;3.60;;
18838;SDS011;9548;56.920;14.804;2022-12-17T12:14:30;5.87;;;2.80;;
18838;SDS011;9548;56.920;14.804;2022-12-17T12:17:23;5.90;;;2.67;;
18838;SDS011;9548;56.920;14.804;2022-12-17T12:20:18;4.73;;;2.33;;
18838;SDS011;9548;56.920;14.804;2022-12-17T12:23:17;4.07;;;2.20;;
18838;SDS011;9548;56.920;14.804;2022-12-17T12:26:11;4.00;;;1.93;;
18838;SDS011;9548;56.920;14.804;2022-12-17T12:28:59;6.47;;;2.43;;
18838;SDS011;9548;56.920;14.804;2022-12-17T12:31:51;5.13;;;2.10;;
18838;SDS011;9548;56.920;14.804;2022-12-17T12:34:46;6.43;;;2.23;;
18838;SDS011;9548;56.920;14.804;2022-12-17T12:37:33;4.50;;;2.10;;
18838;SDS011;9548;56.920;14.804;2022-12-17T12:40:20;5.17;;;2.40;;
18838;SDS011;9548;56.920;14.804;2022-12-17T12:43:13;2.90;;;1.90;;
18838;SDS011;9548;56.920;14.804;2022-12-17T12:46:03;3.20;;;2.07;;
18838;SDS011;9548;56.920;14.804;2022-12-17T12:49:12;3.93;;;1.97;;
18838;SDS011;9548;56.920;14.804;2022-12-17T12:52:01;4.30;;;2.20;;
18838;SDS011;9548;56.920;14.804;2022-12-17T12:54:50;4.57;;;2.30;;
18838;SDS011;9548;56.920;14.804;2022-12-17T12:57:38;5.30;;;2.53;;
18838;SDS011;9548;56.920;14.804;2022-12-17T13:00:29;4.93;;;2.60;;
18838;SDS011;9548;56.920;14.804;2022-12-17T13:03:27;6.70;;;2.70;;
18838;SDS011;9548;56.920;14.804;2022-12-17T13:06:13;5.10;;;2.10;;
18838;SDS011;9548;56.920;14.804;2022-12-17T13:09:04;3.50;;;1.97;;
18838;SDS011;9548;56.920;14.804;2022-12-17T13:11:35;5.00;;;2.30;;
18838;SDS011;9548;56.920;14.804;2022-12-17T13:14:05;7.53;;;2.57;;
18838;SDS011;9548;56.920;14.804;2022-12-17T13:16:40;5.00;;;2.30;;
18838;SDS011;9548;56.920;14.804;2022-12-17T13:19:18;5.03;;;2.43;;
18838;SDS011;9548;56.920;14.804;2022-12-17T13:22:07;3.50;;;2.07;;
18838;SDS011;9548;56.920;14.804;2022-12-17T13:24:35;5.33;;;2.23;;
18838;SDS011;9548;56.920;14.804;2022-12-17T13:27:03;5.17;;;2.63;;
18838;SDS011;9548;56.920;14.804;2022-12-17T13:29:31;4.97;;;2.57;;
18838;SDS011;9548;56.920;14.804;2022-12-17T13:32:06;4.00;;;2.10;;
18838;SDS011;9548;56.920;14.804;2022-12-17T13:34:44;4.47;;;2.30;;
18838;SDS011;9548;56.920;14.804;2022-12-17T13:37:22;5.50;;;2.70;;
18838;SDS011;9548;56.920;14.804;2022-12-17T13:39:59;5.23;;;2.47;;
18838;SDS011;9548;56.920;14.804;2022-12-17T13:42:43;5.43;;;2.47;;
18838;SDS011;9548;56.920;14.804;2022-12-17T13:45:12;7.20;;;2.83;;
18838;SDS011;9548;56.920;14.804;2022-12-17T13:47:42;7.57;;;3.00;;
18838;SDS011;9548;56.920;14.804;2022-12-17T13:50:18;4.60;;;2.30;;
18838;SDS011;9548;56.920;14.804;2022-12-17T13:52:47;4.47;;;2.33;;
18838;SDS011;9548;56.920;14.804;2022-12-17T13:55:18;5.17;;;2.20;;
18838;SDS011;9548;56.920;14.804;2022-12-17T13:57:47;5.83;;;2.50;;
18838;SDS011;9548;56.920;14.804;2022-12-17T14:00:20;6.50;;;2.80;;
18838;SDS011;9548;56.920;14.804;2022-12-17T14:02:50;5.13;;;2.33;;
18838;SDS011;9548;56.920;14.804;2022-12-17T14:05:21;5.13;;;2.53;;
18838;SDS011;9548;56.920;14.804;2022-12-17T14:07:50;6.20;;;3.03;;
18838;SDS011;9548;56.920;14.804;2022-12-17T14:10:18;9.63;;;3.93;;
18838;SDS011;9548;56.920;14.804;2022-12-17T14:12:45;5.83;;;2.90;;
18838;SDS011;9548;56.920;14.804;2022-12-17T14:15:16;5.33;;;2.60;;
18838;SDS011;9548;56.920;14.804;2022-12-17T14:17:49;7.65;;;3.05;;
18838;SDS011;9548;56.920;14.804;2022-12-17T14:20:18;8.57;;;3.00;;
18838;SDS011;9548;56.920;14.804;2022-12-17T14:22:48;7.60;;;2.87;;
18838;SDS011;9548;56.920;14.804;2022-12-17T14:25:18;6.90;;;2.93;;
18838;SDS011;9548;56.920;14.804;2022-12-17T14:27:51;6.33;;;2.83;;
18838;SDS011;9548;56.920;14.804;2022-12-17T14:30:21;5.50;;;2.50;;
18838;SDS011;9548;56.920;14.804;2022-12-17T14:32:51;6.30;;;2.57;;
18838;SDS011;9548;56.920;14.804;2022-12-17T14:35:22;5.70;;;2.80;;
18838;SDS011;9548;56.920;14.804;2022-12-17T14:37:49;7.20;;;2.97;;
18838;SDS011;9548;56.920;14.804;2022-12-17T14:40:16;10.40;;;2.90;;
18838;SDS011;9548;56.920;14.804;2022-12-17T14:42:43;4.37;;;2.23;;
18838;SDS011;9548;56.920;14.804;2022-12-17T14:45:20;5.57;;;3.00;;
18838;SDS011;9548;56.920;14.804;2022-12-17T14:47:53;5.27;;;2.87;;
18838;SDS011;9548;56.920;14.804;2022-12-17T14:50:27;6.37;;;2.83;;
18838;SDS011;9548;56.920;14.804;2022-12-17T14:52:57;6.93;;;2.93;;
18838;SDS011;9548;56.920;14.804;2022-12-17T14:55:26;6.50;;;3.00;;
18838;SDS011;9548;56.920;14.804;2022-12-17T14:58:13;9.07;;;3.73;;
18838;SDS011;9548;56.920;14.804;2022-12-17T15:00:42;9.53;;;4.00;;
18838;SDS011;9548;56.920;14.804;2022-12-17T15:03:14;9.13;;;3.67;;
18838;SDS011;9548;56.920;14.804;2022-12-17T15:05:44;10.90;;;4.13;;
18838;SDS011;9548;56.920;14.804;2022-12-17T15:08:15;8.67;;;3.83;;
18838;SDS011;9548;56.920;14.804;2022-12-17T15:10:42;9.93;;;4.00;;
18838;SDS011;9548;56.920;14.804;2022-12-17T15:13:09;9.77;;;4.20;;
18838;SDS011;9548;56.920;14.804;2022-12-17T15:15:36;12.20;;;4.50;;
18838;SDS011;9548;56.920;14.804;2022-12-17T15:18:03;9.57;;;4.77;;
18838;SDS011;9548;56.920;14.804;2022-12-17T15:20:31;9.07;;;4.17;;
18838;SDS011;9548;56.920;14.804;2022-12-17T15:22:59;8.70;;;4.07;;
18838;SDS011;9548;56.920;14.804;2022-12-17T15:25:26;13.43;;;5.27;;
18838;SDS011;9548;56.920;14.804;2022-12-17T15:27:53;11.93;;;5.30;;
18838;SDS011;9548;56.920;14.804;2022-12-17T15:30:21;11.23;;;4.50;;
18838;SDS011;9548;56.920;14.804;2022-12-17T15:32:48;12.80;;;5.93;;
18838;SDS011;9548;56.920;14.804;2022-12-17T15:35:14;16.60;;;6.17;;
18838;SDS011;9548;56.920;14.804;2022-12-17T15:37:43;17.17;;;6.47;;
18838;SDS011;9548;56.920;14.804;2022-12-17T15:40:10;13.07;;;5.50;;
18838;SDS011;9548;56.920;14.804;2022-12-17T15:42:37;14.10;;;6.20;;
18838;SDS011;9548;56.920;14.804;2022-12-17T15:45:22;11.73;;;5.50;;
18838;SDS011;9548;56.920;14.804;2022-12-17T15:47:49;15.67;;;5.63;;
18838;SDS011;9548;56.920;14.804;2022-12-17T15:50:17;15.27;;;6.83;;
18838;SDS011;9548;56.920;14.804;2022-12-17T15:52:45;11.47;;;5.33;;
18838;SDS011;9548;56.920;14.804;2022-12-17T15:55:12;9.93;;;5.03;;
18838;SDS011;9548;56.920;14.804;2022-12-17T15:57:40;15.40;;;6.20;;
18838;SDS011;9548;56.920;14.804;2022-12-17T16:00:08;12.33;;;5.67;;
18838;SDS011;9548;56.920;14.804;2022-12-17T16:02:36;13.43;;;5.87;;
18838;SDS011;9548;56.920;14.804;2022-12-17T16:05:03;12.00;;;5.70;;
18838;SDS011;9548;56.920;14.804;2022-12-17T16:07:31;11.00;;;5.10;;
18838;SDS011;9548;56.920;14.804;2022-12-17T16:09:59;10.87;;;5.50;;
18838;SDS011;9548;56.920;14.804;2022-12-17T16:12:26;11.63;;;5.33;;
18838;SDS011;9548;56.920;14.804;2022-12-17T16:14:53;13.40;;;5.63;;
18838;SDS011;9548;56.920;14.804;2022-12-17T16:17:20;21.80;;;7.50;;
18838;SDS011;9548;56.920;14.804;2022-12-17T16:19:47;19.20;;;6.97;;